createdAt,value
2022-12-24T00:03:18.952Z,2.51
2022-12-24T00:08:20.798Z,2.50
2022-12-24T00:13:22.573Z,2.36
2022-12-24T00:18:24.423Z,2.37
2022-12-24T00:23:26.170Z,2.35
2022-12-24T00:28:28.126Z,2.40
2022-12-24T00:33:29.827Z,2.34
2022-12-24T00:38:31.700Z,2.37
2022-12-24T00:43:33.495Z,2.31
2022-12-24T00:48:35.281Z,2.32
2022-12-24T00:53:37.131Z,2.28
2022-12-24T00:58:39.102Z,2.23
2022-12-24T01:03:40.919Z,2.18
2022-12-24T01:08:43.063Z,2.21
2022-12-24T01:13:44.806Z,2.13
2022-12-24T01:18:46.888Z,2.14
2022-12-24T01:23:49.306Z,2.18
2022-12-24T01:28:51.154Z,2.10
2022-12-24T01:33:53.050Z,2.11
2022-12-24T01:38:54.814Z,2.10
2022-12-24T01:43:56.539Z,2.09
2022-12-24T01:49:01.574Z,2.05
2022-12-24T01:54:28.857Z,2.03
2022-12-24T01:59:30.921Z,2.03
2022-12-24T02:04:34.721Z,2.03
2022-12-24T02:09:37.445Z,1.94
2022-12-24T02:14:39.238Z,1.98
2022-12-24T02:20:17.821Z,1.98
2022-12-24T02:25:25.593Z,1.91
2022-12-24T02:30:46.302Z,1.86
2022-12-24T02:36:03.242Z,1.89
2022-12-24T02:41:18.340Z,1.83
2022-12-24T02:46:27.992Z,1.84
2022-12-24T02:51:29.733Z,1.84
2022-12-24T02:56:43.524Z,1.78
2022-12-24T03:01:57.749Z,1.79
2022-12-24T03:07:13.581Z,1.72
2022-12-24T03:12:23.951Z,1.62
2022-12-24T03:17:26.784Z,1.69
2022-12-24T03:22:30.755Z,1.71
2022-12-24T03:27:34.459Z,1.70
2022-12-24T03:32:36.142Z,1.66
2022-12-24T03:37:38.367Z,1.66
2022-12-24T03:42:40.216Z,1.61
2022-12-24T03:47:42.001Z,1.60
2022-12-24T03:52:44.192Z,1.57
2022-12-24T03:57:46.036Z,1.52
2022-12-24T04:02:48.062Z,1.39
2022-12-24T04:07:49.885Z,1.46
2022-12-24T04:12:51.568Z,1.34
2022-12-24T04:17:53.279Z,1.38
2022-12-24T04:22:54.914Z,1.31
2022-12-24T04:27:56.591Z,1.45
2022-12-24T04:32:58.279Z,1.46
2022-12-24T04:38:00.399Z,1.41
2022-12-24T04:43:02.587Z,1.40
2022-12-24T04:48:04.766Z,1.36
2022-12-24T04:53:06.445Z,1.16
2022-12-24T04:58:08.141Z,1.24
2022-12-24T05:03:09.892Z,1.21
2022-12-24T05:08:11.859Z,1.25
2022-12-24T05:13:13.529Z,1.27
2022-12-24T05:18:15.222Z,1.21
2022-12-24T05:23:38.410Z,1.23
2022-12-24T05:28:40.150Z,1.18
2022-12-24T05:33:41.870Z,1.19
2022-12-24T05:38:44.482Z,1.12
2022-12-24T05:43:46.457Z,1.22
2022-12-24T05:48:49.049Z,1.13
2022-12-24T05:53:52.144Z,1.14
2022-12-24T05:58:54.958Z,1.08
2022-12-24T06:03:57.592Z,1.02
2022-12-24T06:08:59.398Z,1.03
2022-12-24T06:14:01.430Z,1.00
2022-12-24T06:19:03.134Z,1.02
2022-12-24T06:24:05.121Z,0.99
2022-12-24T06:29:07.056Z,0.95
2022-12-24T06:34:08.860Z,0.94
2022-12-24T06:39:10.567Z,0.91
2022-12-24T06:44:12.603Z,0.98
2022-12-24T06:49:14.269Z,1.00
2022-12-24T06:54:16.151Z,0.97
2022-12-24T06:59:17.917Z,1.02
2022-12-24T07:04:20.698Z,1.00
2022-12-24T07:09:22.676Z,0.89
2022-12-24T07:14:27.552Z,0.89
2022-12-24T07:19:29.347Z,0.73
2022-12-24T07:24:31.429Z,0.93
2022-12-24T07:29:33.257Z,0.96
2022-12-24T07:34:35.500Z,0.95
2022-12-24T07:39:37.283Z,0.93
2022-12-24T07:44:39.011Z,0.88
2022-12-24T07:49:40.812Z,0.90
2022-12-24T07:54:45.809Z,0.80
2022-12-24T07:59:47.532Z,1.04
2022-12-24T08:04:51.553Z,0.98
2022-12-24T08:09:53.360Z,1.08
2022-12-24T08:14:56.068Z,1.09
2022-12-24T08:19:57.782Z,1.03
2022-12-24T08:24:59.538Z,1.12
2022-12-24T08:30:01.402Z,1.14
2022-12-24T08:35:03.248Z,1.08
2022-12-24T08:40:05.574Z,1.22
2022-12-24T08:45:07.858Z,1.23
2022-12-24T08:50:10.422Z,1.31
2022-12-24T08:55:12.244Z,1.37
2022-12-24T09:00:15.125Z,1.36
2022-12-24T09:05:17.148Z,1.41
2022-12-24T09:10:19.138Z,1.44
2022-12-24T09:15:20.948Z,1.52
2022-12-24T09:20:23.198Z,1.53
2022-12-24T09:25:24.949Z,1.58
2022-12-24T09:30:26.682Z,1.60
2022-12-24T09:35:28.851Z,1.75
2022-12-24T09:40:38.157Z,1.79
2022-12-24T09:45:46.139Z,1.94
2022-12-24T09:51:11.151Z,2.04
2022-12-24T09:56:22.737Z,2.17
2022-12-24T10:01:25.052Z,2.15
2022-12-24T10:06:42.407Z,2.20
2022-12-24T10:12:02.771Z,2.21
2022-12-24T10:17:11.228Z,2.31
2022-12-24T10:22:42.063Z,2.10
2022-12-24T10:27:45.686Z,2.22
2022-12-24T10:32:49.902Z,2.15
2022-12-24T10:37:52.939Z,2.25
2022-12-24T10:42:54.782Z,2.36
2022-12-24T10:48:01.505Z,2.70
2022-12-24T10:53:32.253Z,2.69
2022-12-24T10:58:47.994Z,2.95
2022-12-24T11:04:02.373Z,3.05
2022-12-24T11:09:21.743Z,2.98
2022-12-24T11:14:31.318Z,3.33
2022-12-24T11:19:41.653Z,3.31
2022-12-24T11:24:49.892Z,3.67
2022-12-24T11:29:52.412Z,3.61
2022-12-24T11:34:54.379Z,3.75
2022-12-24T11:40:00.004Z,3.73
2022-12-24T11:45:14.834Z,4.01
2022-12-24T11:50:27.088Z,4.26
2022-12-24T11:55:47.292Z,4.23
2022-12-24T12:00:51.605Z,4.20
2022-12-24T12:05:55.870Z,4.26
2022-12-24T12:11:00.138Z,4.07
2022-12-24T12:16:14.281Z,3.95
2022-12-24T12:21:22.515Z,4.09
2022-12-24T12:26:27.308Z,4.05
2022-12-24T12:31:34.298Z,4.33
2022-12-24T12:36:45.650Z,4.01
2022-12-24T12:42:17.484Z,4.28
2022-12-24T12:47:28.222Z,4.55
2022-12-24T12:53:24.736Z,4.33
2022-12-24T12:58:41.647Z,4.46
2022-12-24T13:04:01.321Z,4.85
2022-12-24T13:09:40.615Z,4.88
2022-12-24T13:14:57.570Z,4.61
2022-12-24T13:20:24.497Z,4.36
2022-12-24T13:25:40.277Z,4.30
2022-12-24T13:30:42.629Z,4.83
2022-12-24T13:36:02.631Z,4.42
2022-12-24T13:41:39.914Z,4.41
2022-12-24T13:47:05.339Z,4.35
2022-12-24T13:52:14.551Z,4.34
2022-12-24T13:57:30.864Z,4.57
2022-12-24T14:02:38.739Z,4.38
2022-12-24T14:07:47.715Z,4.28
2022-12-24T14:12:51.988Z,4.60
2022-12-24T14:17:54.054Z,4.20
2022-12-24T14:22:57.117Z,4.18
2022-12-24T14:28:01.068Z,4.17
2022-12-24T14:33:03.137Z,4.11
2022-12-24T14:38:05.787Z,4.08
2022-12-24T14:43:27.453Z,3.98
2022-12-24T14:48:34.634Z,4.65
2022-12-24T14:53:49.585Z,3.92
2022-12-24T14:58:52.617Z,4.18
2022-12-24T15:04:20.886Z,3.88
2022-12-24T15:09:29.606Z,3.76
2022-12-24T15:14:41.754Z,3.74
2022-12-24T15:19:47.801Z,3.73
2022-12-24T15:24:49.720Z,3.64
2022-12-24T15:29:55.849Z,3.56
2022-12-24T15:34:57.708Z,3.69
2022-12-24T15:40:10.126Z,3.65
2022-12-24T15:45:14.058Z,3.47
2022-12-24T15:50:35.807Z,3.46
2022-12-24T15:55:44.140Z,3.57
2022-12-24T16:01:04.726Z,3.44
2022-12-24T16:06:13.880Z,3.47
2022-12-24T16:11:20.355Z,3.47
2022-12-24T16:16:36.084Z,3.45
2022-12-24T16:21:42.393Z,3.37
2022-12-24T16:26:44.688Z,3.29
2022-12-24T16:31:51.634Z,3.33
2022-12-24T16:36:53.829Z,3.24
2022-12-24T16:42:16.020Z,3.15
2022-12-24T16:47:33.382Z,3.10
2022-12-24T16:52:36.660Z,3.07
2022-12-24T16:57:40.941Z,3.04
2022-12-24T17:02:43.006Z,2.98
2022-12-24T17:07:45.414Z,2.93
2022-12-24T17:12:47.077Z,3.00
2022-12-24T17:17:48.817Z,3.05
2022-12-24T17:22:51.022Z,3.00
2022-12-24T17:27:52.733Z,2.97
2022-12-24T17:32:54.401Z,2.94
2022-12-24T17:37:56.146Z,2.87
2022-12-24T17:42:58.030Z,2.84
2022-12-24T17:47:59.764Z,2.83
2022-12-24T17:53:01.457Z,2.80
2022-12-24T17:58:03.230Z,2.77
2022-12-24T18:03:05.101Z,2.75
2022-12-24T18:08:06.857Z,2.81
2022-12-24T18:13:12.663Z,2.83
2022-12-24T18:18:19.103Z,2.84
2022-12-24T18:23:20.790Z,2.85
2022-12-24T18:28:22.527Z,2.87
2022-12-24T18:33:24.257Z,2.83
2022-12-24T18:38:26.516Z,2.84
2022-12-24T18:43:28.574Z,2.82
2022-12-24T18:48:30.436Z,2.85
2022-12-24T18:53:33.135Z,2.82
2022-12-24T18:58:35.288Z,2.80
2022-12-24T19:03:37.221Z,2.77
2022-12-24T19:08:57.039Z,2.77
2022-12-24T19:14:01.808Z,2.80
2022-12-24T19:19:05.516Z,2.90
2022-12-24T19:24:10.569Z,3.06
2022-12-24T19:29:12.707Z,2.88
2022-12-24T19:34:14.634Z,2.88
2022-12-24T19:39:16.620Z,2.82
2022-12-24T19:44:18.599Z,2.77
2022-12-24T19:49:20.606Z,2.84
2022-12-24T19:54:22.574Z,2.80
2022-12-24T19:59:24.324Z,2.77
2022-12-24T20:04:26.248Z,2.75
2022-12-24T20:09:29.128Z,2.78
2022-12-24T20:14:31.108Z,2.78
2022-12-24T20:19:33.125Z,2.77
2022-12-24T20:24:35.120Z,2.80
2022-12-24T20:29:37.042Z,2.80
2022-12-24T20:34:39.078Z,2.85
2022-12-24T20:39:41.333Z,2.80
2022-12-24T20:44:43.426Z,2.79
2022-12-24T20:49:45.396Z,2.75
2022-12-24T20:54:47.459Z,2.75
2022-12-24T20:59:49.349Z,2.74
2022-12-24T21:04:54.147Z,2.75
2022-12-24T21:09:58.428Z,2.72
2022-12-24T21:15:00.345Z,2.68
2022-12-24T21:20:02.894Z,2.72
2022-12-24T21:25:05.741Z,2.71
2022-12-24T21:30:08.558Z,2.71
2022-12-24T21:35:12.533Z,2.70
2022-12-24T21:40:14.312Z,2.70
2022-12-24T21:45:16.194Z,2.72
2022-12-24T21:50:36.750Z,2.71
2022-12-24T21:55:38.544Z,2.69
2022-12-24T22:00:40.278Z,2.68
2022-12-24T22:05:42.062Z,2.70
2022-12-24T22:11:09.783Z,2.68
2022-12-24T22:16:12.757Z,2.70
2022-12-24T22:21:14.575Z,2.67
2022-12-24T22:26:18.198Z,2.68
2022-12-24T22:31:25.923Z,2.71
2022-12-24T22:36:27.888Z,2.71
2022-12-24T22:41:30.110Z,2.69
2022-12-24T22:46:32.078Z,2.68
2022-12-24T22:51:34.054Z,2.69
2022-12-24T22:56:40.962Z,2.67
2022-12-24T23:01:45.776Z,2.68
2022-12-24T23:06:48.086Z,2.68
2022-12-24T23:11:50.080Z,2.69
2022-12-24T23:16:53.803Z,2.67
2022-12-24T23:21:55.621Z,2.68
2022-12-24T23:26:59.107Z,2.66
2022-12-24T23:32:00.944Z,2.64
2022-12-24T23:37:02.788Z,2.65
2022-12-24T23:42:05.064Z,2.63
2022-12-24T23:47:07.224Z,2.67
2022-12-24T23:52:09.931Z,2.60
2022-12-24T23:57:11.686Z,2.63
